createdAt,value
2022-08-14T00:03:40.360Z,70.0
2022-08-14T00:06:14.234Z,70.0
2022-08-14T00:08:55.558Z,71.0
2022-08-14T00:11:11.081Z,71.0
2022-08-14T00:13:43.250Z,71.0
2022-08-14T00:16:12.687Z,71.0
2022-08-14T00:19:18.944Z,71.0
2022-08-14T00:21:22.445Z,71.0
2022-08-14T00:23:53.902Z,71.0
2022-08-14T00:26:33.313Z,71.0
2022-08-14T00:29:03.911Z,71.0
2022-08-14T00:31:56.402Z,71.0
2022-08-14T00:34:35.589Z,71.0
2022-08-14T00:36:48.549Z,72.0
2022-08-14T00:39:03.099Z,71.0
2022-08-14T00:44:21.633Z,72.0
2022-08-14T00:46:43.826Z,72.0
2022-08-14T00:49:24.534Z,72.0
2022-08-14T00:51:48.211Z,73.0
2022-08-14T00:54:32.155Z,73.0
2022-08-14T00:57:06.033Z,73.0
2022-08-14T00:59:27.595Z,73.0
2022-08-14T01:02:02.807Z,73.0
2022-08-14T01:05:03.649Z,73.0
2022-08-14T01:07:07.628Z,73.0
2022-08-14T01:09:40.065Z,73.0
2022-08-14T01:12:13.702Z,73.0
2022-08-14T01:14:41.053Z,73.0
2022-08-14T01:17:11.656Z,74.0
2022-08-14T01:19:44.748Z,74.0
2022-08-14T01:24:57.476Z,74.0
2022-08-14T01:27:28.529Z,73.0
2022-08-14T01:30:16.896Z,73.0
2022-08-14T01:32:35.475Z,74.0
2022-08-14T01:36:20.764Z,74.0
2022-08-14T01:37:36.273Z,74.0
2022-08-14T01:40:21.210Z,74.0
2022-08-14T01:42:54.555Z,74.0
2022-08-14T01:45:17.813Z,74.0
2022-08-14T01:47:43.849Z,74.0
2022-08-14T01:50:14.309Z,74.0
2022-08-14T01:53:10.446Z,74.0
2022-08-14T01:55:21.102Z,74.0
2022-08-14T01:58:29.814Z,74.0
2022-08-14T02:00:29.291Z,74.0
2022-08-14T02:05:35.783Z,75.0
2022-08-14T02:08:22.173Z,75.0
2022-08-14T02:10:46.197Z,75.0
2022-08-14T02:13:09.759Z,75.0
2022-08-14T02:15:40.652Z,75.0
2022-08-14T02:18:15.084Z,75.0
2022-08-14T02:20:46.213Z,75.0
2022-08-14T02:23:23.980Z,75.0
2022-08-14T02:25:54.456Z,75.0
2022-08-14T02:29:07.229Z,75.0
2022-08-14T02:30:57.784Z,75.0
2022-08-14T02:33:33.481Z,75.0
2022-08-14T02:36:05.191Z,75.0
2022-08-14T02:38:40.228Z,75.0
2022-08-14T02:41:11.021Z,75.0
2022-08-14T02:46:07.933Z,75.0
2022-08-14T02:49:15.561Z,75.0
2022-08-14T02:51:24.694Z,75.0
2022-08-14T02:53:52.538Z,76.0
2022-08-14T02:57:39.584Z,76.0
2022-08-14T02:59:00.330Z,76.0
2022-08-14T03:01:43.181Z,76.0
2022-08-14T03:07:08.293Z,76.0
2022-08-14T03:09:10.080Z,76.0
2022-08-14T03:11:45.388Z,76.0
2022-08-14T03:14:09.930Z,77.0
2022-08-14T03:16:44.461Z,77.0
2022-08-14T03:19:11.759Z,77.0
2022-08-14T03:21:52.880Z,77.0
2022-08-14T03:26:49.991Z,77.0
2022-08-14T03:29:34.663Z,77.0
2022-08-14T03:31:56.637Z,77.0
2022-08-14T03:34:58.526Z,77.0
2022-08-14T03:39:22.375Z,77.0
2022-08-14T03:39:55.941Z,77.0
2022-08-14T03:42:13.395Z,77.0
2022-08-14T03:45:36.193Z,77.0
2022-08-14T03:47:09.028Z,77.0
2022-08-14T03:49:44.229Z,77.0
2022-08-14T03:52:56.066Z,77.0
2022-08-14T03:54:52.430Z,77.0
2022-08-14T03:57:23.854Z,77.0
2022-08-14T03:59:58.706Z,77.0
2022-08-14T04:02:46.946Z,77.0
2022-08-14T04:07:50.096Z,78.0
2022-08-14T04:10:12.959Z,78.0
2022-08-14T04:12:36.777Z,78.0
2022-08-14T04:15:12.276Z,78.0
2022-08-14T04:17:44.028Z,78.0
2022-08-14T04:20:25.499Z,78.0
2022-08-14T04:22:54.792Z,78.0
2022-08-14T04:25:26.297Z,78.0
2022-08-14T04:28:58.638Z,77.0
2022-08-14T04:30:42.206Z,77.0
2022-08-14T04:33:18.546Z,78.0
2022-08-14T04:35:55.794Z,78.0
2022-08-14T04:38:14.558Z,78.0
2022-08-14T04:40:40.329Z,78.0
2022-08-14T04:43:06.137Z,78.0
2022-08-14T04:48:31.651Z,78.0
2022-08-14T04:50:55.232Z,78.0
2022-08-14T04:53:16.177Z,78.0
2022-08-14T04:55:56.185Z,78.0
2022-08-14T04:58:36.785Z,78.0
2022-08-14T05:03:28.374Z,77.0
2022-08-14T05:06:04.593Z,76.0
2022-08-14T05:09:00.834Z,75.0
2022-08-14T05:11:05.389Z,75.0
2022-08-14T05:13:53.077Z,74.0
2022-08-14T05:16:07.368Z,73.0
2022-08-14T05:19:36.559Z,73.0
2022-08-14T05:22:27.131Z,72.0
2022-08-14T05:23:51.946Z,71.0
2022-08-14T05:28:54.960Z,71.0
2022-08-14T05:31:22.057Z,70.0
2022-08-14T05:34:07.210Z,69.0
2022-08-14T05:36:31.498Z,69.0
2022-08-14T05:39:03.249Z,68.0
2022-08-14T05:42:09.751Z,68.0
2022-08-14T05:44:05.150Z,68.0
2022-08-14T05:49:19.272Z,67.0
2022-08-14T05:51:46.212Z,67.0
2022-08-14T05:54:26.850Z,67.0
2022-08-14T05:56:48.128Z,66.0
2022-08-14T05:59:19.331Z,66.0
2022-08-14T06:02:00.705Z,65.0
2022-08-14T06:04:35.068Z,66.0
2022-08-14T06:09:40.390Z,65.0
2022-08-14T06:12:02.992Z,65.0
2022-08-14T06:14:36.741Z,64.0
2022-08-14T06:17:25.731Z,64.0
2022-08-14T06:19:46.798Z,64.0
2022-08-14T06:22:23.024Z,64.0
2022-08-14T06:24:54.158Z,63.0
2022-08-14T06:27:20.891Z,64.0
2022-08-14T06:29:45.203Z,63.0
2022-08-14T06:32:52.701Z,63.0
2022-08-14T06:35:23.600Z,62.0
2022-08-14T06:37:34.650Z,62.0
2022-08-14T06:39:57.562Z,62.0
2022-08-14T06:42:43.452Z,63.0
2022-08-14T06:45:12.982Z,62.0
2022-08-14T06:50:18.631Z,62.0
2022-08-14T06:52:40.756Z,62.0
2022-08-14T06:55:25.481Z,62.0
2022-08-14T06:57:51.884Z,62.0
2022-08-14T07:00:36.758Z,61.0
2022-08-14T07:02:58.816Z,61.0
2022-08-14T07:05:33.522Z,61.0
2022-08-14T07:07:58.948Z,60.0
2022-08-14T07:10:29.556Z,60.0
2022-08-14T07:13:13.853Z,61.0
2022-08-14T07:15:55.215Z,60.0
2022-08-14T07:18:19.177Z,60.0
2022-08-14T07:20:42.175Z,60.0
2022-08-14T07:23:20.040Z,60.0
2022-08-14T07:25:43.750Z,60.0
2022-08-14T07:31:04.512Z,59.0
2022-08-14T07:38:35.656Z,58.0
2022-08-14T07:41:03.225Z,58.0
2022-08-14T07:43:37.455Z,58.0
2022-08-14T07:46:07.042Z,58.0
2022-08-14T07:48:38.559Z,59.0
2022-08-14T07:51:21.210Z,58.0
2022-08-14T07:53:56.721Z,59.0
2022-08-14T07:56:49.097Z,58.0
2022-08-14T07:59:01.970Z,58.0
2022-08-14T08:01:29.889Z,58.0
2022-08-14T08:03:59.777Z,57.0
2022-08-14T08:06:29.406Z,57.0
2022-08-14T08:11:34.671Z,58.0
2022-08-14T08:14:04.958Z,57.0
2022-08-14T08:16:38.199Z,57.0
2022-08-14T08:19:22.995Z,57.0
2022-08-14T08:21:45.070Z,57.0
2022-08-14T08:24:18.648Z,57.0
2022-08-14T08:26:41.382Z,57.0
2022-08-14T08:29:28.744Z,57.0
2022-08-14T08:31:51.165Z,57.0
2022-08-14T08:34:28.494Z,58.0
2022-08-14T08:37:05.243Z,57.0
2022-08-14T08:39:42.396Z,57.0
2022-08-14T08:42:14.438Z,57.0
2022-08-14T08:44:43.060Z,56.0
2022-08-14T08:47:14.029Z,57.0
2022-08-14T08:52:15.089Z,57.0
2022-08-14T08:54:45.127Z,57.0
2022-08-14T08:57:31.592Z,55.0
2022-08-14T08:59:54.873Z,55.0
2022-08-14T09:02:25.922Z,55.0
2022-08-14T09:05:04.031Z,55.0
2022-08-14T09:07:28.273Z,54.0
2022-08-14T09:10:07.320Z,53.0
2022-08-14T09:12:33.065Z,52.0
2022-08-14T09:15:12.835Z,52.0
2022-08-14T09:17:36.348Z,52.0
2022-08-14T09:20:14.022Z,52.0
2022-08-14T09:22:57.878Z,52.0
2022-08-14T09:25:09.807Z,52.0
2022-08-14T09:27:50.913Z,52.0
2022-08-14T09:33:12.917Z,51.0
2022-08-14T09:35:24.259Z,51.0
2022-08-14T09:37:51.545Z,50.0
2022-08-14T09:40:39.726Z,51.0
2022-08-14T09:43:10.314Z,51.0
2022-08-14T09:45:39.889Z,52.0
2022-08-14T09:50:36.453Z,50.0
2022-08-14T09:53:11.110Z,49.0
2022-08-14T09:55:53.858Z,49.0
2022-08-14T09:58:29.424Z,50.0
2022-08-14T10:00:52.718Z,49.0
2022-08-14T10:03:26.794Z,49.0
2022-08-14T10:05:49.785Z,48.0
2022-08-14T10:08:26.503Z,48.0
2022-08-14T10:13:53.639Z,48.0
2022-08-14T10:16:08.841Z,49.0
2022-08-14T10:18:35.569Z,48.0
2022-08-14T10:21:09.472Z,49.0
2022-08-14T10:23:53.381Z,49.0
2022-08-14T10:26:38.160Z,49.0
2022-08-14T10:29:30.291Z,49.0
2022-08-14T10:31:25.279Z,49.0
2022-08-14T10:34:00.652Z,48.0
2022-08-14T10:36:47.963Z,48.0
2022-08-14T10:39:04.114Z,48.0
2022-08-14T10:41:46.839Z,47.0
2022-08-14T10:44:02.458Z,47.0
2022-08-14T10:48:06.877Z,47.0
2022-08-14T10:49:08.735Z,46.0
2022-08-14T10:54:47.366Z,46.0
2022-08-14T10:56:49.196Z,46.0
2022-08-14T10:59:18.527Z,46.0
2022-08-14T11:01:48.832Z,45.0
2022-08-14T11:04:25.045Z,46.0
2022-08-14T11:06:48.127Z,45.0
2022-08-14T11:09:31.278Z,45.0
2022-08-14T11:12:33.529Z,45.0
2022-08-14T11:14:37.431Z,45.0
2022-08-14T11:17:10.123Z,45.0
2022-08-14T11:19:35.440Z,44.0
2022-08-14T11:22:52.193Z,44.0
2022-08-14T11:25:06.537Z,44.0
2022-08-14T11:27:17.221Z,45.0
2022-08-14T11:29:46.450Z,45.0
2022-08-14T11:34:52.824Z,44.0
2022-08-14T11:37:46.571Z,44.0
2022-08-14T11:40:01.601Z,44.0
2022-08-14T11:43:08.759Z,45.0
2022-08-14T11:45:04.260Z,44.0
2022-08-14T11:48:11.060Z,42.0
2022-08-14T11:50:08.811Z,41.0
2022-08-14T11:52:50.769Z,42.0
2022-08-14T11:55:14.893Z,42.0
2022-08-14T11:57:59.550Z,42.0
2022-08-14T12:00:31.799Z,42.0
2022-08-14T12:03:14.831Z,41.0
2022-08-14T12:05:19.931Z,41.0
2022-08-14T12:08:00.023Z,42.0
2022-08-14T12:10:47.256Z,42.0
2022-08-14T12:15:28.342Z,41.0
2022-08-14T12:18:06.164Z,41.0
2022-08-14T12:20:45.701Z,41.0
2022-08-14T12:23:15.469Z,42.0
2022-08-14T12:25:59.406Z,41.0
2022-08-14T12:28:59.546Z,41.0
2022-08-14T12:33:13.587Z,40.0
2022-08-14T12:35:56.394Z,40.0
2022-08-14T12:38:31.241Z,40.0
2022-08-14T12:41:06.330Z,40.0
2022-08-14T12:43:32.079Z,39.0
2022-08-14T12:46:03.104Z,39.0
2022-08-14T12:48:32.805Z,39.0
2022-08-14T12:51:13.786Z,40.0
2022-08-14T12:56:42.687Z,39.0
2022-08-14T12:59:02.791Z,39.0
2022-08-14T13:01:31.060Z,38.0
2022-08-14T13:03:42.169Z,39.0
2022-08-14T13:06:25.503Z,38.0
2022-08-14T13:09:03.580Z,38.0
2022-08-14T13:11:34.239Z,37.0
2022-08-14T13:13:59.078Z,38.0
2022-08-14T13:16:38.981Z,37.0
2022-08-14T13:19:11.672Z,37.0
2022-08-14T13:21:58.354Z,36.0
2022-08-14T13:24:17.068Z,36.0
2022-08-14T13:26:48.516Z,37.0
2022-08-14T13:29:13.650Z,37.0
2022-08-14T13:31:44.719Z,37.0
2022-08-14T13:37:09.013Z,37.0
2022-08-14T13:39:30.794Z,38.0
2022-08-14T13:41:57.545Z,38.0
2022-08-14T13:44:34.333Z,37.0
2022-08-14T13:46:56.136Z,37.0
2022-08-14T13:49:40.227Z,37.0
2022-08-14T13:52:14.582Z,37.0
2022-08-14T13:54:40.311Z,36.0
2022-08-14T13:57:15.990Z,36.0
2022-08-14T13:59:48.499Z,36.0
2022-08-14T14:02:12.909Z,37.0
2022-08-14T14:04:56.438Z,37.0
2022-08-14T14:07:27.027Z,36.0
2022-08-14T14:12:59.292Z,36.0
2022-08-14T14:17:41.023Z,37.0
2022-08-14T14:20:34.851Z,38.0
2022-08-14T14:23:12.294Z,37.0
2022-08-14T14:25:10.425Z,37.0
2022-08-14T14:27:53.352Z,36.0
2022-08-14T14:30:57.078Z,36.0
2022-08-14T14:33:28.846Z,37.0
2022-08-14T14:35:30.105Z,37.0
2022-08-14T14:37:55.887Z,37.0
2022-08-14T14:41:07.259Z,36.0
2022-08-14T14:43:01.976Z,36.0
2022-08-14T14:45:28.043Z,37.0
2022-08-14T14:48:09.671Z,36.0
2022-08-14T14:50:42.381Z,36.0
2022-08-14T14:53:23.596Z,36.0
2022-08-14T14:58:10.219Z,36.0
2022-08-14T15:00:46.426Z,35.0
2022-08-14T15:03:19.499Z,35.0
2022-08-14T15:05:51.889Z,36.0
2022-08-14T15:08:52.831Z,36.0
2022-08-14T15:11:03.364Z,36.0
2022-08-14T15:16:04.485Z,36.0
2022-08-14T15:18:52.792Z,36.0
2022-08-14T15:21:03.773Z,36.0
2022-08-14T15:23:55.058Z,34.0
2022-08-14T15:26:11.345Z,35.0
2022-08-14T15:28:49.142Z,35.0
2022-08-14T15:31:24.485Z,35.0
2022-08-14T15:34:55.857Z,35.0
2022-08-14T15:38:58.886Z,36.0
2022-08-14T15:41:22.279Z,37.0
2022-08-14T15:43:52.613Z,37.0
2022-08-14T15:46:55.673Z,37.0
2022-08-14T15:49:10.152Z,37.0
2022-08-14T15:51:42.054Z,37.0
2022-08-14T15:54:02.946Z,37.0
2022-08-14T15:56:53.308Z,38.0
2022-08-14T15:59:04.615Z,38.0
2022-08-14T16:02:04.018Z,38.0
2022-08-14T16:04:27.619Z,38.0
2022-08-14T16:06:51.830Z,38.0
2022-08-14T16:09:21.459Z,38.0
2022-08-14T16:12:00.849Z,38.0
2022-08-14T16:14:35.187Z,38.0
2022-08-14T16:19:44.055Z,39.0
2022-08-14T16:40:36.317Z,39.0
2022-08-14T16:41:14.891Z,40.0
2022-08-14T16:41:51.099Z,40.0
2022-08-14T16:43:22.990Z,41.0
2022-08-14T16:43:59.076Z,41.0
2022-08-14T16:44:44.230Z,41.0
2022-08-14T16:45:15.312Z,40.0
2022-08-14T16:45:54.005Z,40.0
2022-08-14T16:46:26.242Z,40.0
2022-08-14T16:47:45.108Z,40.0
2022-08-14T16:50:15.545Z,41.0
2022-08-14T16:52:54.542Z,40.0
2022-08-14T16:55:11.041Z,40.0
2022-08-14T17:00:43.285Z,40.0
2022-08-14T17:02:52.955Z,40.0
2022-08-14T17:07:55.966Z,41.0
2022-08-14T17:10:27.857Z,41.0
2022-08-14T17:13:00.235Z,42.0
2022-08-14T17:15:31.601Z,41.0
2022-08-14T17:18:08.368Z,42.0
2022-08-14T17:21:07.815Z,42.0
2022-08-14T17:23:10.915Z,42.0
2022-08-14T17:25:32.756Z,42.0
2022-08-14T17:29:00.784Z,43.0
2022-08-14T17:30:48.085Z,43.0
2022-08-14T17:33:15.481Z,44.0
2022-08-14T17:36:07.628Z,44.0
2022-08-14T17:40:52.196Z,45.0
2022-08-14T17:43:41.164Z,45.0
2022-08-14T17:46:06.676Z,45.0
2022-08-14T17:49:24.768Z,46.0
2022-08-14T17:51:12.227Z,46.0
2022-08-14T17:53:34.876Z,47.0
2022-08-14T17:56:14.140Z,47.0
2022-08-14T18:01:16.852Z,48.0
2022-08-14T18:04:05.348Z,48.0
2022-08-14T18:06:57.613Z,48.0
2022-08-14T18:08:55.266Z,49.0
2022-08-14T18:11:26.248Z,49.0
2022-08-14T18:14:01.879Z,49.0
2022-08-14T18:16:33.409Z,49.0
2022-08-14T18:21:57.119Z,51.0
2022-08-14T18:24:01.888Z,51.0
2022-08-14T18:26:47.646Z,51.0
2022-08-14T18:29:14.873Z,52.0
2022-08-14T18:31:53.490Z,52.0
2022-08-14T18:34:31.389Z,52.0
2022-08-14T18:37:03.967Z,52.0
2022-08-14T18:39:33.022Z,53.0
2022-08-14T18:42:02.456Z,53.0
2022-08-14T18:44:26.948Z,53.0
2022-08-14T18:47:15.235Z,54.0
2022-08-14T18:49:26.771Z,54.0
2022-08-14T18:52:04.407Z,54.0
2022-08-14T18:54:48.590Z,54.0
2022-08-14T18:57:12.500Z,55.0
2022-08-14T19:02:31.303Z,55.0
2022-08-14T19:04:43.159Z,55.0
2022-08-14T19:07:16.519Z,55.0
2022-08-14T19:10:00.437Z,55.0
2022-08-14T19:12:41.170Z,55.0
2022-08-14T19:14:55.574Z,56.0
2022-08-14T19:17:26.268Z,56.0
2022-08-14T19:20:05.217Z,56.0
2022-08-14T19:22:40.268Z,56.0
2022-08-14T19:25:15.178Z,57.0
2022-08-14T19:30:16.463Z,57.0
2022-08-14T19:32:41.688Z,57.0
2022-08-14T19:35:39.677Z,57.0
2022-08-14T19:37:53.805Z,57.0
2022-08-14T19:42:58.392Z,57.0
2022-08-14T19:45:30.249Z,57.0
2022-08-14T19:48:00.075Z,57.0
2022-08-14T19:50:49.200Z,58.0
2022-08-14T19:53:11.782Z,58.0
2022-08-14T19:55:45.362Z,58.0
2022-08-14T19:58:08.855Z,58.0
2022-08-14T20:00:51.886Z,58.0
2022-08-14T20:03:18.522Z,58.0
2022-08-14T20:05:52.961Z,58.0
2022-08-14T20:11:12.809Z,58.0
2022-08-14T20:12:57.297Z,58.0
2022-08-14T20:13:33.954Z,58.0
2022-08-14T20:15:57.627Z,59.0
2022-08-14T20:18:57.953Z,59.0
2022-08-14T20:23:49.529Z,59.0
2022-08-14T20:26:11.386Z,59.0
2022-08-14T20:28:39.793Z,59.0
2022-08-14T20:31:17.725Z,59.0
2022-08-14T20:33:48.160Z,59.0
2022-08-14T20:36:13.711Z,59.0
2022-08-14T20:39:00.628Z,59.0
2022-08-14T20:41:27.618Z,59.0
2022-08-14T20:44:06.475Z,59.0
2022-08-14T20:46:22.841Z,60.0
2022-08-14T20:49:03.340Z,60.0
2022-08-14T20:51:47.799Z,60.0
2022-08-14T20:54:10.603Z,61.0
2022-08-14T20:56:40.217Z,61.0
2022-08-14T20:59:11.496Z,61.0
2022-08-14T21:04:15.108Z,61.0
2022-08-14T21:07:36.403Z,61.0
2022-08-14T21:09:44.069Z,61.0
2022-08-14T21:12:34.578Z,61.0
2022-08-14T21:14:36.996Z,61.0
2022-08-14T21:17:09.195Z,61.0
2022-08-14T21:19:26.618Z,61.0
2022-08-14T21:22:08.930Z,62.0
2022-08-14T21:25:02.111Z,62.0
2022-08-14T21:27:23.505Z,62.0
2022-08-14T21:29:39.211Z,62.0
2022-08-14T21:32:20.420Z,62.0
2022-08-14T21:34:55.163Z,62.0
2022-08-14T21:37:20.105Z,62.0
2022-08-14T21:39:57.261Z,62.0
2022-08-14T21:44:54.264Z,62.0
2022-08-14T21:47:26.874Z,62.0
2022-08-14T21:50:03.859Z,62.0
2022-08-14T21:53:10.500Z,62.0
2022-08-14T21:55:08.774Z,62.0
2022-08-14T21:58:51.556Z,62.0
2022-08-14T22:00:05.251Z,62.0
2022-08-14T22:02:42.779Z,62.0
2022-08-14T22:05:22.310Z,63.0
2022-08-14T22:07:54.093Z,63.0
2022-08-14T22:10:22.833Z,63.0
2022-08-14T22:13:11.265Z,63.0
2022-08-14T22:15:24.882Z,63.0
2022-08-14T22:18:04.398Z,64.0
2022-08-14T22:20:31.192Z,64.0
2022-08-14T22:25:33.698Z,64.0
2022-08-14T22:28:09.869Z,64.0
2022-08-14T22:30:41.660Z,65.0
2022-08-14T22:33:15.151Z,65.0
2022-08-14T22:35:56.290Z,65.0
2022-08-14T22:38:49.506Z,65.0
2022-08-14T22:41:42.972Z,65.0
2022-08-14T22:43:19.041Z,65.0
2022-08-14T22:46:06.001Z,65.0
2022-08-14T22:48:27.487Z,66.0
2022-08-14T22:51:04.010Z,66.0
2022-08-14T22:53:39.570Z,66.0
2022-08-14T22:56:04.469Z,66.0
2022-08-14T22:58:44.891Z,67.0
2022-08-14T23:01:11.778Z,67.0
2022-08-14T23:07:14.589Z,68.0
2022-08-14T23:09:56.051Z,68.0
2022-08-14T23:11:16.493Z,68.0
2022-08-14T23:13:49.343Z,68.0
2022-08-14T23:16:30.711Z,69.0
2022-08-14T23:19:04.586Z,69.0
2022-08-14T23:21:28.786Z,69.0
2022-08-14T23:24:06.877Z,69.0
2022-08-14T23:27:00.725Z,69.0
2022-08-14T23:29:08.945Z,70.0
2022-08-14T23:31:46.400Z,70.0
2022-08-14T23:34:21.219Z,70.0
2022-08-14T23:36:53.903Z,70.0
2022-08-14T23:39:24.440Z,70.0
2022-08-14T23:42:04.157Z,69.0
2022-08-14T23:47:00.640Z,69.0
2022-08-14T23:49:27.083Z,69.0
2022-08-14T23:53:07.728Z,69.0
2022-08-14T23:55:01.285Z,69.0
2022-08-14T23:57:14.056Z,69.0
2022-08-14T23:59:31.652Z,69.0
